sensor_id;sensor_type;location;lat;lon;timestamp;pressure;altitude;pressure_sealevel;temperature;humidity
46642;BME280;32370;41.864;-88.124;2023-04-07T00:00:06;100197.43;;;7.94;37.39
46642;BME280;32370;41.864;-88.124;2023-04-07T00:02:34;100198.47;;;7.59;38.23
46642;BME280;32370;41.864;-88.124;2023-04-07T00:05:02;100197.23;;;7.27;36.38
46642;BME280;32370;41.864;-88.124;2023-04-07T00:07:30;100200.37;;;7.52;38.81
46642;BME280;32370;41.864;-88.124;2023-04-07T00:09:58;100201.21;;;7.71;38.34
46642;BME280;32370;41.864;-88.124;2023-04-07T00:12:27;100207.04;;;7.49;39.26
46642;BME280;32370;41.864;-88.124;2023-04-07T00:14:54;100212.76;;;7.43;37.70
46642;BME280;32370;41.864;-88.124;2023-04-07T00:17:22;100208.76;;;7.29;38.69
46642;BME280;32370;41.864;-88.124;2023-04-07T00:19:50;100209.54;;;7.40;37.61
46642;BME280;32370;41.864;-88.124;2023-04-07T00:22:18;100204.36;;;7.66;38.07
46642;BME280;32370;41.864;-88.124;2023-04-07T00:24:46;100209.65;;;7.39;38.05
46642;BME280;32370;41.864;-88.124;2023-04-07T00:27:14;100208.11;;;7.62;38.21
46642;BME280;32370;41.864;-88.124;2023-04-07T00:29:42;100212.60;;;7.45;37.43
46642;BME280;32370;41.864;-88.124;2023-04-07T00:32:09;100209.92;;;7.35;38.21
46642;BME280;32370;41.864;-88.124;2023-04-07T00:34:37;100207.72;;;6.73;38.24
46642;BME280;32370;41.864;-88.124;2023-04-07T00:37:05;100214.99;;;6.70;38.71
46642;BME280;32370;41.864;-88.124;2023-04-07T00:39:33;100217.22;;;6.79;38.52
46642;BME280;32370;41.864;-88.124;2023-04-07T00:42:02;100220.80;;;6.50;38.09
46642;BME280;32370;41.864;-88.124;2023-04-07T00:44:30;100223.51;;;6.75;39.19
46642;BME280;32370;41.864;-88.124;2023-04-07T00:46:58;100226.03;;;6.63;40.10
46642;BME280;32370;41.864;-88.124;2023-04-07T00:49:27;100225.74;;;6.47;40.34
46642;BME280;32370;41.864;-88.124;2023-04-07T00:51:56;100220.64;;;6.34;39.52
46642;BME280;32370;41.864;-88.124;2023-04-07T00:54:25;100224.63;;;6.51;39.23
46642;BME280;32370;41.864;-88.124;2023-04-07T00:56:53;100229.24;;;6.51;40.01
46642;BME280;32370;41.864;-88.124;2023-04-07T00:59:21;100230.64;;;6.19;40.24
46642;BME280;32370;41.864;-88.124;2023-04-07T01:01:57;100234.15;;;6.57;41.15
46642;BME280;32370;41.864;-88.124;2023-04-07T01:04:31;100237.44;;;6.35;41.07
46642;BME280;32370;41.864;-88.124;2023-04-07T01:07:05;100242.61;;;6.51;40.66
46642;BME280;32370;41.864;-88.124;2023-04-07T01:09:40;100244.70;;;6.42;40.81
46642;BME280;32370;41.864;-88.124;2023-04-07T01:12:17;100243.43;;;6.15;40.71
46642;BME280;32370;41.864;-88.124;2023-04-07T01:14:53;100243.71;;;6.04;41.13
46642;BME280;32370;41.864;-88.124;2023-04-07T01:17:25;100243.40;;;5.98;41.63
46642;BME280;32370;41.864;-88.124;2023-04-07T01:19:58;100245.96;;;5.87;42.16
46642;BME280;32370;41.864;-88.124;2023-04-07T01:22:32;100246.17;;;5.98;41.82
46642;BME280;32370;41.864;-88.124;2023-04-07T01:25:22;100240.05;;;5.62;41.37
46642;BME280;32370;41.864;-88.124;2023-04-07T01:27:59;100245.36;;;5.49;42.33
46642;BME280;32370;41.864;-88.124;2023-04-07T01:30:39;100245.30;;;5.30;42.59
46642;BME280;32370;41.864;-88.124;2023-04-07T01:33:09;100246.79;;;5.12;42.66
46642;BME280;32370;41.864;-88.124;2023-04-07T01:35:38;100249.63;;;5.22;42.99
46642;BME280;32370;41.864;-88.124;2023-04-07T01:38:08;100254.18;;;5.44;43.22
46642;BME280;32370;41.864;-88.124;2023-04-07T01:40:39;100261.90;;;5.27;43.38
46642;BME280;32370;41.864;-88.124;2023-04-07T01:43:07;100259.31;;;5.41;43.53
46642;BME280;32370;41.864;-88.124;2023-04-07T01:45:35;100258.67;;;5.12;43.19
46642;BME280;32370;41.864;-88.124;2023-04-07T01:48:05;100262.72;;;5.04;43.94
46642;BME280;32370;41.864;-88.124;2023-04-07T01:50:33;100268.69;;;4.49;43.69
46642;BME280;32370;41.864;-88.124;2023-04-07T01:53:01;100270.14;;;4.97;43.72
46642;BME280;32370;41.864;-88.124;2023-04-07T01:55:30;100276.38;;;5.04;43.72
46642;BME280;32370;41.864;-88.124;2023-04-07T01:58:02;100280.94;;;4.91;43.96
46642;BME280;32370;41.864;-88.124;2023-04-07T02:00:31;100280.69;;;4.42;43.92
46642;BME280;32370;41.864;-88.124;2023-04-07T02:03:03;100285.94;;;4.44;44.06
46642;BME280;32370;41.864;-88.124;2023-04-07T02:05:33;100284.90;;;4.37;44.25
46642;BME280;32370;41.864;-88.124;2023-04-07T02:08:05;100283.56;;;4.50;43.89
46642;BME280;32370;41.864;-88.124;2023-04-07T02:10:36;100282.41;;;4.32;44.04
46642;BME280;32370;41.864;-88.124;2023-04-07T02:13:07;100288.18;;;4.29;44.18
46642;BME280;32370;41.864;-88.124;2023-04-07T02:15:37;100296.88;;;4.11;44.30
46642;BME280;32370;41.864;-88.124;2023-04-07T02:18:07;100301.15;;;4.22;44.07
46642;BME280;32370;41.864;-88.124;2023-04-07T02:20:37;100301.64;;;3.99;44.33
46642;BME280;32370;41.864;-88.124;2023-04-07T02:23:07;100299.70;;;4.17;44.72
46642;BME280;32370;41.864;-88.124;2023-04-07T02:25:36;100300.52;;;4.03;44.49
46642;BME280;32370;41.864;-88.124;2023-04-07T02:28:04;100305.65;;;3.79;45.24
46642;BME280;32370;41.864;-88.124;2023-04-07T02:30:33;100307.79;;;3.72;44.88
46642;BME280;32370;41.864;-88.124;2023-04-07T02:33:01;100310.94;;;3.81;45.14
46642;BME280;32370;41.864;-88.124;2023-04-07T02:35:29;100315.73;;;4.15;45.23
46642;BME280;32370;41.864;-88.124;2023-04-07T02:37:57;100315.70;;;3.39;45.76
46642;BME280;32370;41.864;-88.124;2023-04-07T02:40:25;100315.08;;;3.76;45.72
46642;BME280;32370;41.864;-88.124;2023-04-07T02:42:52;100310.49;;;3.68;46.02
46642;BME280;32370;41.864;-88.124;2023-04-07T02:45:21;100312.10;;;3.91;46.05
46642;BME280;32370;41.864;-88.124;2023-04-07T02:47:48;100316.24;;;3.74;46.87
46642;BME280;32370;41.864;-88.124;2023-04-07T02:50:16;100319.25;;;3.46;47.33
46642;BME280;32370;41.864;-88.124;2023-04-07T02:52:44;100323.68;;;3.72;47.14
46642;BME280;32370;41.864;-88.124;2023-04-07T02:55:12;100323.72;;;3.66;46.99
46642;BME280;32370;41.864;-88.124;2023-04-07T02:57:40;100325.12;;;3.52;47.66
46642;BME280;32370;41.864;-88.124;2023-04-07T03:00:09;100331.90;;;3.08;48.37
46642;BME280;32370;41.864;-88.124;2023-04-07T03:02:37;100336.28;;;2.92;48.94
46642;BME280;32370;41.864;-88.124;2023-04-07T03:05:05;100335.31;;;3.07;49.65
46642;BME280;32370;41.864;-88.124;2023-04-07T03:07:33;100333.56;;;2.79;50.01
46642;BME280;32370;41.864;-88.124;2023-04-07T03:10:01;100340.41;;;2.66;50.70
46642;BME280;32370;41.864;-88.124;2023-04-07T03:12:29;100342.81;;;2.34;51.46
46642;BME280;32370;41.864;-88.124;2023-04-07T03:14:56;100335.78;;;2.64;51.38
46642;BME280;32370;41.864;-88.124;2023-04-07T03:17:25;100335.75;;;2.61;50.64
46642;BME280;32370;41.864;-88.124;2023-04-07T03:19:53;100336.42;;;2.85;50.53
46642;BME280;32370;41.864;-88.124;2023-04-07T03:22:21;100342.54;;;2.13;50.99
46642;BME280;32370;41.864;-88.124;2023-04-07T03:24:49;100344.53;;;2.12;51.69
46642;BME280;32370;41.864;-88.124;2023-04-07T03:27:17;100344.58;;;2.21;53.37
46642;BME280;32370;41.864;-88.124;2023-04-07T03:29:45;100347.71;;;2.17;53.89
46642;BME280;32370;41.864;-88.124;2023-04-07T03:32:13;100348.53;;;2.21;53.81
46642;BME280;32370;41.864;-88.124;2023-04-07T03:34:41;100349.63;;;2.21;54.50
46642;BME280;32370;41.864;-88.124;2023-04-07T03:37:09;100352.44;;;1.93;54.93
46642;BME280;32370;41.864;-88.124;2023-04-07T03:39:37;100351.88;;;2.00;55.81
46642;BME280;32370;41.864;-88.124;2023-04-07T03:42:05;100355.73;;;1.88;56.26
46642;BME280;32370;41.864;-88.124;2023-04-07T03:44:33;100364.14;;;1.62;56.30
46642;BME280;32370;41.864;-88.124;2023-04-07T03:47:01;100367.90;;;1.42;57.22
46642;BME280;32370;41.864;-88.124;2023-04-07T03:49:29;100367.05;;;1.18;57.96
46642;BME280;32370;41.864;-88.124;2023-04-07T03:51:57;100368.07;;;1.51;57.44
46642;BME280;32370;41.864;-88.124;2023-04-07T03:54:25;100371.54;;;1.20;57.39
46642;BME280;32370;41.864;-88.124;2023-04-07T03:56:53;100373.40;;;1.16;57.69
46642;BME280;32370;41.864;-88.124;2023-04-07T03:59:21;100377.18;;;1.19;57.02
46642;BME280;32370;41.864;-88.124;2023-04-07T04:02:05;100375.50;;;1.13;57.46
46642;BME280;32370;41.864;-88.124;2023-04-07T04:04:32;100382.84;;;1.53;56.89
46642;BME280;32370;41.864;-88.124;2023-04-07T04:07:00;100385.18;;;1.38;56.87
46642;BME280;32370;41.864;-88.124;2023-04-07T04:09:28;100386.40;;;1.68;56.47
46642;BME280;32370;41.864;-88.124;2023-04-07T04:11:56;100391.29;;;1.22;57.36
46642;BME280;32370;41.864;-88.124;2023-04-07T04:14:24;100391.44;;;1.37;57.45
46642;BME280;32370;41.864;-88.124;2023-04-07T04:16:53;100395.01;;;1.33;57.12
46642;BME280;32370;41.864;-88.124;2023-04-07T04:19:22;100397.12;;;1.48;57.00
46642;BME280;32370;41.864;-88.124;2023-04-07T04:21:50;100398.17;;;1.17;58.40
46642;BME280;32370;41.864;-88.124;2023-04-07T04:24:18;100395.99;;;1.34;59.80
46642;BME280;32370;41.864;-88.124;2023-04-07T04:26:46;100394.00;;;1.13;59.36
46642;BME280;32370;41.864;-88.124;2023-04-07T04:29:14;100395.86;;;0.97;59.64
46642;BME280;32370;41.864;-88.124;2023-04-07T04:31:42;100396.12;;;1.43;59.01
46642;BME280;32370;41.864;-88.124;2023-04-07T04:34:10;100396.46;;;1.52;58.37
46642;BME280;32370;41.864;-88.124;2023-04-07T04:36:38;100394.68;;;1.44;58.37
46642;BME280;32370;41.864;-88.124;2023-04-07T04:39:06;100393.49;;;1.17;58.53
46642;BME280;32370;41.864;-88.124;2023-04-07T04:41:34;100391.04;;;1.13;59.11
46642;BME280;32370;41.864;-88.124;2023-04-07T04:44:02;100387.31;;;1.05;60.43
46642;BME280;32370;41.864;-88.124;2023-04-07T04:46:30;100384.76;;;0.94;60.74
46642;BME280;32370;41.864;-88.124;2023-04-07T04:48:58;100386.87;;;0.83;61.41
46642;BME280;32370;41.864;-88.124;2023-04-07T04:51:26;100389.42;;;0.96;62.58
46642;BME280;32370;41.864;-88.124;2023-04-07T04:53:54;100394.77;;;0.45;62.31
46642;BME280;32370;41.864;-88.124;2023-04-07T04:56:22;100400.28;;;0.46;62.98
46642;BME280;32370;41.864;-88.124;2023-04-07T04:58:50;100397.69;;;0.30;63.84
46642;BME280;32370;41.864;-88.124;2023-04-07T05:01:18;100401.07;;;0.30;64.73
46642;BME280;32370;41.864;-88.124;2023-04-07T05:03:46;100402.45;;;0.02;64.95
46642;BME280;32370;41.864;-88.124;2023-04-07T05:06:14;100406.25;;;0.01;64.94
46642;BME280;32370;41.864;-88.124;2023-04-07T05:08:42;100409.42;;;0.05;64.71
46642;BME280;32370;41.864;-88.124;2023-04-07T05:11:10;100408.38;;;0.05;64.53
46642;BME280;32370;41.864;-88.124;2023-04-07T05:13:39;100411.93;;;0.19;65.48
46642;BME280;32370;41.864;-88.124;2023-04-07T05:16:07;100411.21;;;-0.03;66.42
46642;BME280;32370;41.864;-88.124;2023-04-07T05:18:35;100411.98;;;-0.07;66.44
46642;BME280;32370;41.864;-88.124;2023-04-07T05:21:05;100409.86;;;-0.42;66.54
46642;BME280;32370;41.864;-88.124;2023-04-07T05:23:33;100409.11;;;-0.57;67.23
46642;BME280;32370;41.864;-88.124;2023-04-07T05:26:01;100408.63;;;-0.42;66.59
46642;BME280;32370;41.864;-88.124;2023-04-07T05:28:29;100412.86;;;0.01;65.77
46642;BME280;32370;41.864;-88.124;2023-04-07T05:30:57;100415.88;;;0.11;65.16
46642;BME280;32370;41.864;-88.124;2023-04-07T05:33:25;100422.20;;;0.19;64.54
46642;BME280;32370;41.864;-88.124;2023-04-07T05:35:53;100424.23;;;0.38;64.54
46642;BME280;32370;41.864;-88.124;2023-04-07T05:38:21;100424.27;;;0.20;65.27
46642;BME280;32370;41.864;-88.124;2023-04-07T05:40:49;100428.63;;;0.18;65.46
46642;BME280;32370;41.864;-88.124;2023-04-07T05:43:17;100430.39;;;-0.09;65.25
46642;BME280;32370;41.864;-88.124;2023-04-07T05:45:45;100432.81;;;0.27;64.75
46642;BME280;32370;41.864;-88.124;2023-04-07T05:48:13;100432.94;;;-0.13;64.83
46642;BME280;32370;41.864;-88.124;2023-04-07T05:50:41;100438.09;;;-0.04;65.55
46642;BME280;32370;41.864;-88.124;2023-04-07T05:53:09;100441.14;;;0.00;65.63
46642;BME280;32370;41.864;-88.124;2023-04-07T05:55:37;100436.68;;;0.08;65.30
46642;BME280;32370;41.864;-88.124;2023-04-07T05:58:05;100436.83;;;0.05;65.05
46642;BME280;32370;41.864;-88.124;2023-04-07T06:00:33;100436.24;;;-0.15;64.76
46642;BME280;32370;41.864;-88.124;2023-04-07T06:03:01;100441.30;;;0.25;64.56
46642;BME280;32370;41.864;-88.124;2023-04-07T06:05:29;100446.31;;;-0.18;64.82
46642;BME280;32370;41.864;-88.124;2023-04-07T06:07:57;100450.55;;;-0.14;64.43
46642;BME280;32370;41.864;-88.124;2023-04-07T06:10:25;100453.41;;;-0.22;64.28
46642;BME280;32370;41.864;-88.124;2023-04-07T06:12:53;100454.04;;;-0.50;65.13
46642;BME280;32370;41.864;-88.124;2023-04-07T06:15:21;100453.51;;;-0.65;65.55
46642;BME280;32370;41.864;-88.124;2023-04-07T06:17:48;100452.32;;;-0.56;65.74
46642;BME280;32370;41.864;-88.124;2023-04-07T06:20:17;100452.15;;;-0.44;65.61
46642;BME280;32370;41.864;-88.124;2023-04-07T06:22:46;100449.59;;;-0.14;65.50
46642;BME280;32370;41.864;-88.124;2023-04-07T06:25:13;100457.54;;;-0.41;65.80
46642;BME280;32370;41.864;-88.124;2023-04-07T06:27:41;100462.40;;;-0.44;65.76
46642;BME280;32370;41.864;-88.124;2023-04-07T06:30:10;100465.58;;;-0.64;66.79
46642;BME280;32370;41.864;-88.124;2023-04-07T06:32:38;100472.36;;;-0.77;67.29
46642;BME280;32370;41.864;-88.124;2023-04-07T06:35:07;100471.98;;;-0.90;67.47
46642;BME280;32370;41.864;-88.124;2023-04-07T06:37:35;100476.04;;;-0.40;66.39
46642;BME280;32370;41.864;-88.124;2023-04-07T06:40:04;100478.36;;;-0.71;66.52
46642;BME280;32370;41.864;-88.124;2023-04-07T06:42:32;100479.87;;;-0.94;67.12
46642;BME280;32370;41.864;-88.124;2023-04-07T06:45:00;100475.51;;;-0.72;67.22
46642;BME280;32370;41.864;-88.124;2023-04-07T06:47:28;100474.64;;;-0.94;68.84
46642;BME280;32370;41.864;-88.124;2023-04-07T06:49:56;100475.64;;;-1.03;69.17
46642;BME280;32370;41.864;-88.124;2023-04-07T06:52:24;100474.94;;;-1.03;69.06
46642;BME280;32370;41.864;-88.124;2023-04-07T06:54:52;100471.92;;;-0.79;69.23
46642;BME280;32370;41.864;-88.124;2023-04-07T06:57:20;100468.27;;;-1.04;70.87
46642;BME280;32370;41.864;-88.124;2023-04-07T06:59:48;100476.14;;;-1.00;70.05
46642;BME280;32370;41.864;-88.124;2023-04-07T07:02:16;100478.77;;;-1.41;69.94
46642;BME280;32370;41.864;-88.124;2023-04-07T07:04:44;100475.33;;;-1.01;70.17
46642;BME280;32370;41.864;-88.124;2023-04-07T07:07:12;100479.37;;;-1.14;72.68
46642;BME280;32370;41.864;-88.124;2023-04-07T07:09:40;100481.14;;;-1.08;70.90
46642;BME280;32370;41.864;-88.124;2023-04-07T07:12:08;100480.99;;;-0.85;71.32
46642;BME280;32370;41.864;-88.124;2023-04-07T07:14:36;100474.83;;;-1.24;72.21
46642;BME280;32370;41.864;-88.124;2023-04-07T07:17:04;100477.81;;;-1.12;72.76
46642;BME280;32370;41.864;-88.124;2023-04-07T07:19:32;100475.45;;;-1.29;72.73
46642;BME280;32370;41.864;-88.124;2023-04-07T07:22:00;100474.10;;;-0.96;72.55
46642;BME280;32370;41.864;-88.124;2023-04-07T07:24:30;100481.78;;;-1.21;74.38
46642;BME280;32370;41.864;-88.124;2023-04-07T07:26:58;100479.13;;;-1.50;74.46
46642;BME280;32370;41.864;-88.124;2023-04-07T07:29:26;100484.49;;;-1.26;73.92
46642;BME280;32370;41.864;-88.124;2023-04-07T07:31:54;100485.93;;;-1.48;73.21
46642;BME280;32370;41.864;-88.124;2023-04-07T07:34:22;100487.76;;;-1.16;72.56
46642;BME280;32370;41.864;-88.124;2023-04-07T07:36:50;100486.48;;;-1.32;73.00
46642;BME280;32370;41.864;-88.124;2023-04-07T07:39:18;100484.94;;;-1.41;73.39
46642;BME280;32370;41.864;-88.124;2023-04-07T07:41:46;100487.60;;;-1.68;73.65
46642;BME280;32370;41.864;-88.124;2023-04-07T07:44:13;100491.91;;;-1.59;75.33
46642;BME280;32370;41.864;-88.124;2023-04-07T07:46:42;100494.29;;;-1.64;75.67
46642;BME280;32370;41.864;-88.124;2023-04-07T07:49:09;100498.72;;;-1.97;75.91
46642;BME280;32370;41.864;-88.124;2023-04-07T07:51:38;100502.23;;;-1.70;75.58
46642;BME280;32370;41.864;-88.124;2023-04-07T07:54:06;100504.60;;;-1.79;75.56
46642;BME280;32370;41.864;-88.124;2023-04-07T07:56:33;100505.15;;;-1.73;75.76
46642;BME280;32370;41.864;-88.124;2023-04-07T07:59:02;100507.20;;;-1.75;75.85
46642;BME280;32370;41.864;-88.124;2023-04-07T08:01:30;100507.44;;;-1.55;76.59
46642;BME280;32370;41.864;-88.124;2023-04-07T08:03:57;100506.36;;;-1.83;77.27
46642;BME280;32370;41.864;-88.124;2023-04-07T08:06:26;100513.45;;;-1.89;77.96
46642;BME280;32370;41.864;-88.124;2023-04-07T08:08:54;100518.37;;;-1.86;77.56
46642;BME280;32370;41.864;-88.124;2023-04-07T08:11:22;100525.49;;;-1.86;77.55
46642;BME280;32370;41.864;-88.124;2023-04-07T08:13:50;100526.14;;;-1.97;78.09
46642;BME280;32370;41.864;-88.124;2023-04-07T08:16:18;100531.38;;;-1.79;76.97
46642;BME280;32370;41.864;-88.124;2023-04-07T08:18:46;100529.42;;;-2.12;77.45
46642;BME280;32370;41.864;-88.124;2023-04-07T08:21:14;100530.26;;;-1.88;76.87
46642;BME280;32370;41.864;-88.124;2023-04-07T08:23:42;100525.01;;;-1.99;77.39
46642;BME280;32370;41.864;-88.124;2023-04-07T08:26:11;100521.30;;;-1.61;76.67
46642;BME280;32370;41.864;-88.124;2023-04-07T08:28:38;100517.74;;;-1.66;76.79
46642;BME280;32370;41.864;-88.124;2023-04-07T08:31:07;100513.78;;;-1.87;76.57
46642;BME280;32370;41.864;-88.124;2023-04-07T08:33:35;100516.16;;;-1.84;76.32
46642;BME280;32370;41.864;-88.124;2023-04-07T08:36:03;100510.24;;;-1.66;76.08
46642;BME280;32370;41.864;-88.124;2023-04-07T08:38:30;100507.98;;;-1.81;76.55
46642;BME280;32370;41.864;-88.124;2023-04-07T08:41:03;100508.12;;;-1.99;77.42
46642;BME280;32370;41.864;-88.124;2023-04-07T08:43:35;100507.96;;;-2.25;77.92
46642;BME280;32370;41.864;-88.124;2023-04-07T08:46:02;100511.76;;;-2.44;78.96
46642;BME280;32370;41.864;-88.124;2023-04-07T08:48:31;100514.22;;;-2.29;78.82
46642;BME280;32370;41.864;-88.124;2023-04-07T08:51:04;100515.68;;;-1.74;78.61
46642;BME280;32370;41.864;-88.124;2023-04-07T08:53:47;100513.42;;;-2.24;78.40
46642;BME280;32370;41.864;-88.124;2023-04-07T08:56:16;100520.12;;;-2.03;77.56
46642;BME280;32370;41.864;-88.124;2023-04-07T08:58:46;100519.88;;;-2.21;76.86
46642;BME280;32370;41.864;-88.124;2023-04-07T09:01:14;100525.46;;;-1.87;76.71
46642;BME280;32370;41.864;-88.124;2023-04-07T09:03:44;100532.15;;;-2.05;76.52
46642;BME280;32370;41.864;-88.124;2023-04-07T09:06:12;100525.23;;;-1.99;76.65
46642;BME280;32370;41.864;-88.124;2023-04-07T09:08:40;100521.17;;;-0.92;75.55
46642;BME280;32370;41.864;-88.124;2023-04-07T09:11:08;100522.81;;;-0.94;74.67
46642;BME280;32370;41.864;-88.124;2023-04-07T09:13:36;100524.48;;;-1.34;73.67
46642;BME280;32370;41.864;-88.124;2023-04-07T09:16:05;100531.03;;;-0.99;73.34
46642;BME280;32370;41.864;-88.124;2023-04-07T09:18:33;100532.43;;;-1.27;73.20
46642;BME280;32370;41.864;-88.124;2023-04-07T09:21:02;100537.98;;;-1.21;71.28
46642;BME280;32370;41.864;-88.124;2023-04-07T09:23:32;100535.10;;;-1.40;70.87
46642;BME280;32370;41.864;-88.124;2023-04-07T09:26:20;100537.55;;;-1.35;69.80
46642;BME280;32370;41.864;-88.124;2023-04-07T09:28:50;100533.04;;;-0.78;68.38
46642;BME280;32370;41.864;-88.124;2023-04-07T09:31:19;100531.17;;;-1.15;66.31
46642;BME280;32370;41.864;-88.124;2023-04-07T09:33:48;100534.23;;;-1.21;65.93
46642;BME280;32370;41.864;-88.124;2023-04-07T09:36:16;100535.23;;;-1.39;65.99
46642;BME280;32370;41.864;-88.124;2023-04-07T09:38:45;100536.83;;;-1.36;65.14
46642;BME280;32370;41.864;-88.124;2023-04-07T09:41:14;100542.23;;;-1.02;63.53
46642;BME280;32370;41.864;-88.124;2023-04-07T09:43:43;100542.54;;;-0.63;63.26
46642;BME280;32370;41.864;-88.124;2023-04-07T09:46:13;100539.54;;;-1.05;62.08
46642;BME280;32370;41.864;-88.124;2023-04-07T09:48:42;100540.93;;;-0.65;61.34
46642;BME280;32370;41.864;-88.124;2023-04-07T09:51:11;100546.97;;;-0.81;59.60
46642;BME280;32370;41.864;-88.124;2023-04-07T09:53:43;100542.87;;;-1.07;60.48
46642;BME280;32370;41.864;-88.124;2023-04-07T09:56:12;100548.75;;;-0.62;60.18
46642;BME280;32370;41.864;-88.124;2023-04-07T09:58:40;100550.09;;;-0.56;60.39
46642;BME280;32370;41.864;-88.124;2023-04-07T10:01:10;100553.39;;;-0.35;60.02
46642;BME280;32370;41.864;-88.124;2023-04-07T10:03:38;100554.49;;;-0.21;58.00
46642;BME280;32370;41.864;-88.124;2023-04-07T10:06:07;100553.33;;;-0.52;57.21
46642;BME280;32370;41.864;-88.124;2023-04-07T10:08:39;100554.75;;;-0.24;57.36
46642;BME280;32370;41.864;-88.124;2023-04-07T10:11:07;100556.68;;;-0.07;57.48
46642;BME280;32370;41.864;-88.124;2023-04-07T10:13:38;100564.22;;;0.35;56.84
46642;BME280;32370;41.864;-88.124;2023-04-07T10:16:07;100563.81;;;-0.35;58.05
46642;BME280;32370;41.864;-88.124;2023-04-07T10:18:36;100562.75;;;-0.12;57.38
46642;BME280;32370;41.864;-88.124;2023-04-07T10:21:08;100561.29;;;-0.20;56.43
46642;BME280;32370;41.864;-88.124;2023-04-07T10:23:47;100562.07;;;-0.19;56.70
46642;BME280;32370;41.864;-88.124;2023-04-07T10:26:17;100559.10;;;-0.26;57.15
46642;BME280;32370;41.864;-88.124;2023-04-07T10:28:50;100558.81;;;0.20;56.56
46642;BME280;32370;41.864;-88.124;2023-04-07T10:31:20;100561.31;;;-0.63;58.16
46642;BME280;32370;41.864;-88.124;2023-04-07T10:33:51;100562.58;;;-0.69;57.82
46642;BME280;32370;41.864;-88.124;2023-04-07T10:36:19;100556.71;;;-0.42;57.83
46642;BME280;32370;41.864;-88.124;2023-04-07T10:39:21;100566.43;;;-0.05;58.02
46642;BME280;32370;41.864;-88.124;2023-04-07T10:41:49;100577.79;;;-0.43;57.45
46642;BME280;32370;41.864;-88.124;2023-04-07T10:45:10;100585.34;;;-0.40;57.35
46642;BME280;32370;41.864;-88.124;2023-04-07T10:48:09;100597.07;;;-0.19;56.76
46642;BME280;32370;41.864;-88.124;2023-04-07T10:50:38;100599.24;;;-0.28;57.46
46642;BME280;32370;41.864;-88.124;2023-04-07T10:53:07;100601.03;;;-0.17;57.71
46642;BME280;32370;41.864;-88.124;2023-04-07T10:55:37;100603.81;;;-0.24;57.63
46642;BME280;32370;41.864;-88.124;2023-04-07T10:58:22;100600.26;;;-0.16;57.60
46642;BME280;32370;41.864;-88.124;2023-04-07T11:01:22;100603.44;;;0.41;58.17
46642;BME280;32370;41.864;-88.124;2023-04-07T11:04:05;100601.25;;;-0.44;58.79
46642;BME280;32370;41.864;-88.124;2023-04-07T11:06:34;100599.64;;;-0.38;59.24
46642;BME280;32370;41.864;-88.124;2023-04-07T11:09:02;100600.56;;;-0.82;60.52
46642;BME280;32370;41.864;-88.124;2023-04-07T11:11:46;100597.97;;;-0.64;60.43
46642;BME280;32370;41.864;-88.124;2023-04-07T11:14:25;100600.42;;;-0.16;60.07
46642;BME280;32370;41.864;-88.124;2023-04-07T11:16:52;100605.27;;;-1.02;61.64
46642;BME280;32370;41.864;-88.124;2023-04-07T11:19:21;100600.70;;;-0.84;61.55
46642;BME280;32370;41.864;-88.124;2023-04-07T11:21:48;100604.36;;;-0.56;61.38
46642;BME280;32370;41.864;-88.124;2023-04-07T11:24:31;100609.33;;;-0.65;61.82
46642;BME280;32370;41.864;-88.124;2023-04-07T11:26:59;100609.91;;;-0.21;61.81
46642;BME280;32370;41.864;-88.124;2023-04-07T11:29:29;100615.97;;;-0.72;63.55
46642;BME280;32370;41.864;-88.124;2023-04-07T11:31:59;100618.18;;;-0.91;64.16
46642;BME280;32370;41.864;-88.124;2023-04-07T11:34:29;100622.57;;;-1.13;65.13
46642;BME280;32370;41.864;-88.124;2023-04-07T11:36:58;100628.87;;;-0.70;64.52
46642;BME280;32370;41.864;-88.124;2023-04-07T11:39:44;100636.42;;;-0.77;64.82
46642;BME280;32370;41.864;-88.124;2023-04-07T11:42:31;100637.02;;;-1.05;66.58
46642;BME280;32370;41.864;-88.124;2023-04-07T11:44:59;100642.55;;;-0.78;66.15
46642;BME280;32370;41.864;-88.124;2023-04-07T11:47:35;100640.04;;;-0.76;67.02
46642;BME280;32370;41.864;-88.124;2023-04-07T11:50:03;100636.55;;;-0.36;66.64
46642;BME280;32370;41.864;-88.124;2023-04-07T11:52:40;100643.20;;;-0.17;66.88
46642;BME280;32370;41.864;-88.124;2023-04-07T11:55:17;100648.11;;;0.17;66.09
46642;BME280;32370;41.864;-88.124;2023-04-07T11:57:45;100652.96;;;0.38;66.87
46642;BME280;32370;41.864;-88.124;2023-04-07T12:00:14;100656.80;;;-0.43;67.36
46642;BME280;32370;41.864;-88.124;2023-04-07T12:02:42;100662.64;;;-0.13;67.99
46642;BME280;32370;41.864;-88.124;2023-04-07T12:05:10;100665.20;;;-0.10;68.06
46642;BME280;32370;41.864;-88.124;2023-04-07T12:07:38;100668.29;;;0.05;69.46
46642;BME280;32370;41.864;-88.124;2023-04-07T12:10:24;100671.58;;;0.34;69.06
46642;BME280;32370;41.864;-88.124;2023-04-07T12:12:52;100676.33;;;0.68;68.54
46642;BME280;32370;41.864;-88.124;2023-04-07T12:15:20;100674.44;;;0.74;69.15
46642;BME280;32370;41.864;-88.124;2023-04-07T12:17:49;100680.17;;;1.04;69.09
46642;BME280;32370;41.864;-88.124;2023-04-07T12:20:17;100682.67;;;1.24;69.05
46642;BME280;32370;41.864;-88.124;2023-04-07T12:22:45;100688.96;;;1.17;69.30
46642;BME280;32370;41.864;-88.124;2023-04-07T12:25:13;100687.64;;;0.83;71.48
46642;BME280;32370;41.864;-88.124;2023-04-07T12:27:40;100693.85;;;1.28;70.88
46642;BME280;32370;41.864;-88.124;2023-04-07T12:30:10;100694.34;;;1.80;70.06
46642;BME280;32370;41.864;-88.124;2023-04-07T12:32:38;100692.61;;;1.48;71.04
46642;BME280;32370;41.864;-88.124;2023-04-07T12:35:07;100695.76;;;1.58;71.41
46642;BME280;32370;41.864;-88.124;2023-04-07T12:37:35;100699.44;;;1.99;70.81
46642;BME280;32370;41.864;-88.124;2023-04-07T12:40:03;100702.69;;;2.19;70.61
46642;BME280;32370;41.864;-88.124;2023-04-07T12:42:32;100705.37;;;1.89;70.74
46642;BME280;32370;41.864;-88.124;2023-04-07T12:45:00;100704.03;;;2.43;69.15
46642;BME280;32370;41.864;-88.124;2023-04-07T12:47:27;100701.34;;;2.09;70.15